Terminal Aerodrome Forecast
Issued by NWS

Home | Current Version | Previous Version | Text Only | Print | Product List | Glossary On
Versions: 1 2 3 4 5 6 7 8 9 10 11 12 13 14 15 16 17 18 19 20 21 22 23 24 25 26 27
000
FTUS41 KGYX 292113 AAA
TAFRKD
TAF AMD
KRKD 292113Z 2921/3018 11012KT P6SM SCT008 OVC015
      TEMPO 2921/2924 3SM BR OVC007
     FM300000 13005KT 3SM -DZ BR OVC007
     FM301200 15007KT 5SM SHRA BR OVC010 WS015/23025KT
      AMD LTD TO CLD VIS AND WIND=

USA.gov is the U.S. government's official web portal to all federal, state and local government web resources and services.